createdAt,value
2022-11-22T00:00:18.683Z,2.6
2022-11-22T00:03:20.636Z,2.3
2022-11-22T00:06:22.664Z,2.4
2022-11-22T00:09:24.577Z,2.5
2022-11-22T00:12:26.552Z,2.4
2022-11-22T00:15:28.489Z,2.1
2022-11-22T00:18:30.484Z,2
2022-11-22T00:21:32.418Z,2.6
2022-11-22T00:24:34.395Z,2.6
2022-11-22T00:27:36.355Z,2.1
2022-11-22T00:30:38.298Z,2.3
2022-11-22T00:33:40.255Z,2.8
2022-11-22T00:36:42.212Z,2.4
2022-11-22T00:39:44.176Z,2.6
2022-11-22T00:42:46.140Z,2.4
2022-11-22T00:45:48.121Z,2.3
2022-11-22T00:48:50.071Z,2.7
2022-11-22T00:51:52.041Z,2.7
2022-11-22T00:54:55.102Z,2.7
2022-11-22T00:57:55.967Z,3.5
2022-11-22T01:00:57.967Z,2.9
2022-11-22T01:03:59.888Z,2.9
2022-11-22T01:07:01.885Z,3.1
2022-11-22T01:10:03.850Z,3.5
2022-11-22T01:13:05.789Z,2.6
2022-11-22T01:16:10.585Z,2.6
2022-11-22T01:19:12.521Z,3
2022-11-22T01:22:14.500Z,2.5
2022-11-22T01:25:16.472Z,2.5
2022-11-22T01:28:18.437Z,3.5
2022-11-22T01:31:20.383Z,2.8
2022-11-22T01:34:22.358Z,2.7
2022-11-22T01:37:24.321Z,2.8
2022-11-22T01:40:26.279Z,3.3
2022-11-22T01:43:28.269Z,2.6
2022-11-22T01:46:30.221Z,3.1
2022-11-22T01:49:32.337Z,3.2
2022-11-22T01:52:34.415Z,4
2022-11-22T01:55:36.124Z,3.6
2022-11-22T01:58:38.086Z,4
2022-11-22T02:01:40.140Z,3.6
2022-11-22T02:04:42.004Z,3.3
2022-11-22T02:07:44.037Z,3.4
2022-11-22T02:10:45.939Z,3.8
2022-11-22T02:13:47.913Z,3.6
2022-11-22T02:16:49.861Z,3.3
2022-11-22T02:19:51.834Z,3.1
2022-11-22T02:22:53.801Z,2.8
2022-11-22T02:25:55.752Z,3.8
2022-11-22T02:28:57.731Z,3.4
2022-11-22T02:31:59.690Z,4
2022-11-22T02:35:01.648Z,3.8
2022-11-22T02:38:03.611Z,3.9
2022-11-22T02:41:05.573Z,3.9
2022-11-22T02:44:07.564Z,4.2
2022-11-22T02:47:09.507Z,4.6
2022-11-22T02:50:11.454Z,4.4
2022-11-22T02:53:13.427Z,4.3
2022-11-22T02:56:15.366Z,4.8
2022-11-22T02:59:17.399Z,4.1
2022-11-22T03:02:19.279Z,5.5
2022-11-22T03:05:21.265Z,5.9
2022-11-22T03:08:23.230Z,4.6
2022-11-22T03:11:25.184Z,5.4
2022-11-22T03:14:27.156Z,5.9
2022-11-22T03:17:29.117Z,5.2
2022-11-22T03:20:31.082Z,6
2022-11-22T03:23:33.084Z,6.8
2022-11-22T03:26:34.994Z,6.4
2022-11-22T03:29:36.964Z,6.8
2022-11-22T03:32:38.979Z,7.1
2022-11-22T03:35:40.916Z,5.4
2022-11-22T03:38:42.875Z,8
2022-11-22T03:41:44.848Z,6.7
2022-11-22T03:44:46.808Z,6.2
2022-11-22T03:47:48.758Z,6.3
2022-11-22T03:50:50.716Z,7
2022-11-22T03:53:52.696Z,8
2022-11-22T03:56:54.637Z,7.2
2022-11-22T03:59:56.609Z,7.6
2022-11-22T04:02:58.550Z,5.8
2022-11-22T04:06:00.536Z,9.3
2022-11-22T04:09:02.669Z,8.4
2022-11-22T04:12:04.485Z,7.1
2022-11-22T04:15:06.413Z,6.6
2022-11-22T04:18:08.367Z,7.1
2022-11-22T04:21:10.327Z,7.6
2022-11-22T04:24:12.298Z,6.7
2022-11-22T04:27:14.263Z,7.6
2022-11-22T04:30:20.384Z,7.8
2022-11-22T04:33:18.182Z,7
2022-11-22T04:36:20.165Z,7.8
2022-11-22T04:39:22.123Z,8.6
2022-11-22T04:42:24.078Z,8.2
2022-11-22T04:45:26.042Z,7.3
2022-11-22T04:48:28.013Z,8.9
2022-11-22T04:51:29.968Z,7.2
2022-11-22T04:54:31.926Z,6.1
2022-11-22T04:57:33.884Z,8
2022-11-22T05:00:35.898Z,6.7
2022-11-22T05:03:37.840Z,7.4
2022-11-22T05:06:39.779Z,6.7
2022-11-22T05:09:41.743Z,6.8
2022-11-22T05:12:43.701Z,7.9
2022-11-22T05:15:45.715Z,8.4
2022-11-22T05:18:47.758Z,8
2022-11-22T05:21:49.558Z,6.2
2022-11-22T05:24:51.538Z,7.7
2022-11-22T05:27:53.523Z,7.5
2022-11-22T05:30:55.449Z,7.6
2022-11-22T05:33:57.424Z,7.8
2022-11-22T05:36:59.368Z,6.9
2022-11-22T05:40:01.347Z,7.7
2022-11-22T05:43:03.294Z,6.4
2022-11-22T05:46:05.251Z,5.6
2022-11-22T05:49:07.228Z,6.2
2022-11-22T05:52:09.264Z,5.6
2022-11-22T05:55:11.146Z,5.1
2022-11-22T05:58:13.123Z,6
2022-11-22T06:01:15.078Z,5.9
2022-11-22T06:04:17.048Z,4.6
2022-11-22T06:07:19.043Z,4.4
2022-11-22T06:10:20.957Z,4.8
2022-11-22T06:13:22.950Z,4.3
2022-11-22T06:16:24.898Z,5.5
2022-11-22T06:19:26.878Z,5
2022-11-22T06:22:28.805Z,5.1
2022-11-22T06:25:30.771Z,4.2
2022-11-22T06:28:32.727Z,5.2
2022-11-22T06:31:34.677Z,4.2
2022-11-22T06:34:36.650Z,4.2
2022-11-22T06:37:38.613Z,4.9
2022-11-22T06:40:40.573Z,3.7
2022-11-22T06:43:46.913Z,4.3
2022-11-22T06:46:44.492Z,4.5
2022-11-22T06:49:46.542Z,4.2
2022-11-22T06:52:48.436Z,4.1
2022-11-22T06:55:50.984Z,4.3
2022-11-22T06:58:52.377Z,3.5
2022-11-22T07:01:54.353Z,4.1
2022-11-22T07:05:23.734Z,3.9
2022-11-22T07:08:04.697Z,4.4
2022-11-22T07:11:00.225Z,4.3
2022-11-22T07:14:07.409Z,3.6
2022-11-22T07:17:04.130Z,4.2
2022-11-22T07:20:06.080Z,3.6
2022-11-22T07:23:08.043Z,3.5
2022-11-22T07:26:10.027Z,3.6
2022-11-22T07:29:11.970Z,4.1
2022-11-22T07:32:13.924Z,3.5
2022-11-22T07:35:15.885Z,3.3
2022-11-22T07:38:17.835Z,3.5
2022-11-22T07:41:19.815Z,3.6
2022-11-22T07:44:21.759Z,3.8
2022-11-22T07:47:23.744Z,3.6
2022-11-22T07:50:25.703Z,3.7
2022-11-22T07:53:27.673Z,3.4
2022-11-22T07:56:29.651Z,3.4
2022-11-22T07:59:31.881Z,3.6
2022-11-22T08:02:33.601Z,3.6
2022-11-22T08:05:35.551Z,3.8
2022-11-22T08:08:37.502Z,3.3
2022-11-22T08:11:39.463Z,3.5
2022-11-22T08:14:41.430Z,3.1
2022-11-22T08:17:43.391Z,2.8
2022-11-22T08:20:45.343Z,2.4
2022-11-22T08:23:47.315Z,2.7
2022-11-22T08:26:49.272Z,2.4
2022-11-22T08:29:51.235Z,2.7
2022-11-22T08:32:53.195Z,2.2
2022-11-22T08:35:55.225Z,1.9
2022-11-22T08:38:57.141Z,2.1
2022-11-22T08:41:59.094Z,2.6
2022-11-22T08:45:01.060Z,2.1
2022-11-22T08:48:03.025Z,3
2022-11-22T08:51:04.969Z,3.1
2022-11-22T08:54:06.928Z,2.6
2022-11-22T08:57:08.899Z,2.6
2022-11-22T09:00:10.880Z,2.1
2022-11-22T09:03:12.816Z,3
2022-11-22T09:09:37.189Z,2.4
2022-11-22T09:12:18.789Z,3.3
2022-11-22T09:15:20.686Z,1.9
2022-11-22T09:18:22.653Z,2.9
2022-11-22T09:21:24.598Z,2.3
2022-11-22T09:24:26.591Z,2.5
2022-11-22T09:27:28.528Z,2.7
2022-11-22T09:30:30.492Z,2.3
2022-11-22T09:33:32.497Z,2.4
2022-11-22T09:36:34.593Z,2.4
2022-11-22T09:39:36.383Z,2.4
2022-11-22T09:42:38.352Z,2.7
2022-11-22T09:45:40.319Z,1.9
2022-11-22T09:48:42.295Z,2.4
2022-11-22T09:51:44.249Z,2.6
2022-11-22T09:54:46.214Z,2
2022-11-22T09:57:48.183Z,1.9
2022-11-22T10:00:52.335Z,1.6
2022-11-22T10:03:52.126Z,3.1
2022-11-22T10:06:54.102Z,2.3
2022-11-22T10:09:56.054Z,3.5
2022-11-22T10:12:58.032Z,2.5
2022-11-22T10:16:00.001Z,2.2
2022-11-22T10:19:01.965Z,2.7
2022-11-22T10:22:03.907Z,1.8
2022-11-22T10:25:05.882Z,1.9
2022-11-22T10:28:07.856Z,1.8
2022-11-22T10:31:09.815Z,1.6
2022-11-22T10:34:11.762Z,1.8
2022-11-22T10:37:13.758Z,2.5
2022-11-22T10:40:15.702Z,1.7
2022-11-22T10:43:17.658Z,1.8
2022-11-22T10:46:19.633Z,2.2
2022-11-22T10:49:21.618Z,1.9
2022-11-22T10:52:23.593Z,2.2
2022-11-22T10:55:25.555Z,1.6
2022-11-22T10:58:27.529Z,1.9
2022-11-22T11:01:29.533Z,1.7
2022-11-22T11:04:31.451Z,2.1
2022-11-22T11:07:33.507Z,1.7
2022-11-22T11:10:35.570Z,1.6
2022-11-22T11:13:37.389Z,1.9
2022-11-22T11:16:39.356Z,1.8
2022-11-22T11:19:41.308Z,2.4
2022-11-22T11:23:13.503Z,2.3
2022-11-22T11:25:45.213Z,1.9
2022-11-22T11:28:47.204Z,2.1
2022-11-22T11:31:49.148Z,2.7
2022-11-22T11:34:51.134Z,2
2022-11-22T11:37:53.104Z,1.6
2022-11-22T11:40:55.070Z,2.2
2022-11-22T11:43:57.033Z,2.2
2022-11-22T11:46:58.993Z,1.8
2022-11-22T11:50:00.965Z,1.7
2022-11-22T11:53:02.924Z,1.7
2022-11-22T11:56:04.880Z,1.9
2022-11-22T11:59:06.857Z,1.6
2022-11-22T12:02:08.820Z,1.6
2022-11-22T12:05:10.760Z,1.7
2022-11-22T12:08:12.732Z,2.1
2022-11-22T12:11:14.691Z,1.4
2022-11-22T12:14:20.574Z,1.8
2022-11-22T12:17:18.615Z,1.4
2022-11-22T12:20:20.581Z,1.7
2022-11-22T12:23:22.560Z,1.4
2022-11-22T12:26:24.534Z,1.9
2022-11-22T12:29:26.523Z,2.1
2022-11-22T12:32:28.480Z,1.5
2022-11-22T12:35:30.444Z,1.3
2022-11-22T12:38:32.425Z,1.5
2022-11-22T12:41:34.641Z,1.3
2022-11-22T12:44:36.369Z,1.5
2022-11-22T12:47:38.368Z,1.3
2022-11-22T12:50:40.368Z,1.7
2022-11-22T12:53:42.276Z,1.6
2022-11-22T12:56:44.224Z,1.5
2022-11-22T12:59:46.184Z,1.2
2022-11-22T13:02:48.146Z,1.6
2022-11-22T13:05:50.162Z,2
2022-11-22T13:08:54.759Z,1.9
2022-11-22T13:11:54.020Z,1.5
2022-11-22T13:14:55.999Z,3.6
2022-11-22T13:17:57.946Z,1.6
2022-11-22T13:20:59.928Z,1.4
2022-11-22T13:24:01.911Z,1.3
2022-11-22T13:27:03.843Z,2
2022-11-22T13:30:05.795Z,1.3
2022-11-22T13:33:07.746Z,1.3
2022-11-22T13:36:09.699Z,1.3
2022-11-22T13:39:11.722Z,1.7
2022-11-22T13:42:13.622Z,1.4
2022-11-22T13:45:15.596Z,1.5
2022-11-22T13:48:17.542Z,1.4
2022-11-22T13:51:19.538Z,1.6
2022-11-22T13:54:21.549Z,1.4
2022-11-22T13:57:23.466Z,1.3
2022-11-22T14:00:25.415Z,1.5
2022-11-22T14:03:27.518Z,1.3
2022-11-22T14:06:29.385Z,1.3
2022-11-22T14:09:31.326Z,0.9
2022-11-22T14:12:33.282Z,1.2
2022-11-22T14:15:35.236Z,1.3
2022-11-22T14:18:37.215Z,1.6
2022-11-22T14:21:39.184Z,1.4
2022-11-22T14:24:41.138Z,1.1
2022-11-22T14:27:43.106Z,1.9
2022-11-22T14:30:45.072Z,1.3
2022-11-22T14:33:47.118Z,1.4
2022-11-22T14:36:49.031Z,1.3
2022-11-22T14:39:50.977Z,1.2
2022-11-22T14:42:52.950Z,1.9
2022-11-22T14:45:54.930Z,1.9
2022-11-22T14:48:56.894Z,2.8
2022-11-22T14:51:58.861Z,1.8
2022-11-22T14:55:00.818Z,1.5
2022-11-22T14:58:02.787Z,1.4
2022-11-22T15:01:04.806Z,1.1
2022-11-22T15:09:07.182Z,1.9
2022-11-22T15:09:09.744Z,1.2
2022-11-22T15:10:10.679Z,1.6
2022-11-22T15:13:12.610Z,1.6
2022-11-22T15:58:42.108Z,0.9
2022-11-22T16:01:44.129Z,0.8
2022-11-22T16:04:46.028Z,0.8
2022-11-22T16:07:48.144Z,0.9
2022-11-22T16:10:49.956Z,1.1
2022-11-22T16:13:51.912Z,0.8
2022-11-22T16:16:53.858Z,0.8
2022-11-22T16:19:55.840Z,1
2022-11-22T16:22:57.793Z,1
2022-11-22T16:25:59.738Z,1
2022-11-22T16:29:01.691Z,0.8
2022-11-22T16:32:03.650Z,0.7
2022-11-22T16:35:27.854Z,0.9
2022-11-22T16:38:07.562Z,0.7
2022-11-22T16:41:09.531Z,0.7
2022-11-22T16:44:11.507Z,0.9
2022-11-22T16:47:13.479Z,0.7
2022-11-22T16:50:15.458Z,0.9
2022-11-22T16:53:17.407Z,0.9
2022-11-22T16:56:19.398Z,0.9
2022-11-22T16:59:21.353Z,0.9
2022-11-22T17:02:23.332Z,0.9
2022-11-22T17:05:25.289Z,0.8
2022-11-22T17:08:27.264Z,0.8
2022-11-22T17:11:29.234Z,0.7
2022-11-22T17:14:31.361Z,0.8
2022-11-22T17:17:33.143Z,0.9
2022-11-22T17:20:35.126Z,1
2022-11-22T17:23:37.073Z,0.8
2022-11-22T17:26:39.056Z,0.7
2022-11-22T17:29:51.082Z,0.9
2022-11-22T17:32:42.967Z,1.4
2022-11-22T17:35:44.950Z,1.3
2022-11-22T17:38:46.904Z,1.1
2022-11-22T17:41:48.884Z,1
2022-11-22T17:44:50.833Z,1.1
2022-11-22T17:47:52.795Z,1
2022-11-22T17:50:54.772Z,1
2022-11-22T17:53:56.745Z,1.1
2022-11-22T17:56:58.684Z,1.1
2022-11-22T18:00:00.675Z,1.1
2022-11-22T18:03:06.811Z,1.1
2022-11-22T18:06:04.604Z,1.2
2022-11-22T18:09:06.547Z,1.1
2022-11-22T18:12:08.511Z,1.7
2022-11-22T18:15:10.474Z,1.2
2022-11-22T18:18:27.223Z,1.8
2022-11-22T18:21:17.086Z,1.4
2022-11-22T18:24:16.400Z,1.5
2022-11-22T18:27:18.361Z,1.7
2022-11-22T18:30:20.340Z,1.8
2022-11-22T18:33:22.331Z,1.7
2022-11-22T18:36:53.818Z,1.6
2022-11-22T18:39:26.240Z,1.6
2022-11-22T18:42:28.221Z,1.5
2022-11-22T18:45:30.198Z,1.4
2022-11-22T18:48:32.172Z,1.7
2022-11-22T18:51:34.106Z,2
2022-11-22T18:54:36.215Z,2.4
2022-11-22T18:57:38.032Z,2.4
2022-11-22T19:00:40.078Z,2.4
2022-11-22T19:03:41.989Z,1.9
2022-11-22T19:06:43.952Z,3
2022-11-22T19:09:45.976Z,2.9
2022-11-22T19:12:47.864Z,2.4
2022-11-22T19:15:49.854Z,2.4
2022-11-22T19:18:51.794Z,2.3
2022-11-22T19:21:53.761Z,2.2
2022-11-22T19:24:55.741Z,1.7
2022-11-22T19:27:57.698Z,2.1
2022-11-22T19:30:59.659Z,2.4
2022-11-22T19:34:01.603Z,2.1
2022-11-22T19:37:03.572Z,2.1
2022-11-22T19:40:05.529Z,2.3
2022-11-22T19:43:10.088Z,1.8
2022-11-22T19:46:09.442Z,2.5
2022-11-22T19:49:11.397Z,2.1
2022-11-22T19:52:13.367Z,2.5
2022-11-22T19:55:15.327Z,2.2
2022-11-22T19:58:17.285Z,2
2022-11-22T20:01:19.316Z,2.2
2022-11-22T20:04:21.198Z,2
2022-11-22T20:07:23.179Z,2.1
2022-11-22T20:10:25.476Z,2.5
2022-11-22T20:13:27.098Z,2.4
2022-11-22T20:16:29.041Z,3.5
2022-11-22T20:19:34.156Z,2.9
2022-11-22T20:22:33.003Z,2.3
2022-11-22T20:25:34.974Z,2.3
2022-11-22T20:28:36.937Z,2.6
2022-11-22T20:31:38.917Z,2.8
2022-11-22T20:34:40.865Z,2.7
2022-11-22T20:37:42.836Z,2.9
2022-11-22T20:40:44.824Z,2.8
2022-11-22T20:43:46.785Z,2.4
2022-11-22T20:46:48.739Z,2.2
2022-11-22T20:49:50.841Z,2.3
2022-11-22T20:52:52.661Z,2.3
2022-11-22T20:55:54.642Z,2.8
2022-11-22T20:58:56.600Z,2.5
2022-11-22T21:01:58.565Z,2.4
2022-11-22T21:05:00.584Z,2.9
2022-11-22T21:08:05.004Z,2.6
2022-11-22T21:11:04.486Z,2.1
2022-11-22T21:14:06.468Z,2.7
2022-11-22T21:17:35.740Z,2.1
2022-11-22T21:20:10.392Z,2.5
2022-11-22T21:23:12.367Z,2.2
2022-11-22T21:26:14.333Z,2.9
2022-11-22T21:29:16.908Z,2.7
2022-11-22T21:32:18.291Z,2.7
2022-11-22T21:35:20.244Z,3.5
2022-11-22T21:38:24.666Z,2.9
2022-11-22T21:41:39.126Z,3
2022-11-22T21:44:26.157Z,2.8
2022-11-22T21:47:28.137Z,3.3
2022-11-22T21:50:30.087Z,3.8
2022-11-22T21:53:32.057Z,5
2022-11-22T21:56:33.998Z,3.4
2022-11-22T21:59:36.227Z,2.7
2022-11-22T22:02:37.911Z,2.6
2022-11-22T22:05:39.899Z,3
2022-11-22T22:08:41.842Z,2.7
2022-11-22T22:11:43.811Z,2.7
2022-11-22T22:14:45.772Z,3.6
2022-11-22T22:17:47.718Z,2.6
2022-11-22T22:20:49.703Z,2.6
2022-11-22T22:23:51.666Z,3.4
2022-11-22T22:26:53.626Z,3.3
2022-11-22T22:29:55.585Z,2.6
2022-11-22T22:32:57.544Z,2.2
2022-11-22T22:35:59.542Z,2
2022-11-22T22:39:01.487Z,2.2
2022-11-22T22:42:03.461Z,1.9
2022-11-22T22:45:05.417Z,2.1
2022-11-22T22:48:07.420Z,2.1
2022-11-22T22:51:09.362Z,1.9
2022-11-22T22:54:11.341Z,1.8
2022-11-22T22:57:13.300Z,1.9
2022-11-22T23:00:15.265Z,1.9
2022-11-22T23:03:17.270Z,1.7
2022-11-22T23:06:19.189Z,1.7
2022-11-22T23:09:21.160Z,1.8
2022-11-22T23:12:23.118Z,1.6
2022-11-22T23:15:44.066Z,2
2022-11-22T23:18:27.064Z,2
2022-11-22T23:21:29.023Z,1.6
2022-11-22T23:24:30.997Z,1.8
2022-11-22T23:27:32.960Z,1.4
2022-11-22T23:30:34.966Z,3.1
2022-11-22T23:33:36.884Z,2.1
2022-11-22T23:36:40.836Z,2
2022-11-22T23:39:40.826Z,2
2022-11-22T23:42:42.795Z,1.6
2022-11-22T23:45:44.755Z,1.3
2022-11-22T23:48:46.720Z,1.3
2022-11-22T23:51:48.690Z,1.8
2022-11-22T23:54:50.656Z,2.1
2022-11-22T23:57:52.617Z,1.5
